Destinations Lennart Meri Tallinn Airport

Lennart Meri Tallinn Airport (EETN / TLL)

Flights to Lennart Meri Tallinn Airport

Flight number From ETE Dispatch
SPY-2424 EGPH Edinburgh Airport 02:40

Flights from Lennart Meri Tallinn Airport

Flight number To ETE Dispatch
SPY-2425 EGPH Edinburgh Airport 02:45
About

Lennart Meri Tallinn Airport facts

Lennart Meri Tallinn Airport is located in Tallinn-ulemiste International at an elevation of 39.9 meters or 131 feet.

Currently, Speedy Airlines serves 2 flights to and from Lennart Meri Tallinn Airport.

Detailed airport info

Route map

Weather

Current weather

METAR

METAR

Metar data retrieved Sunday, 21 July 2024 at 19:55 UTC

EETN 211920Z 04005KT 9999 FEW006 19/18 Q1012 TEMPO BKN005
Wind Temperature
5 kt 19c